sensor_id;sensor_type;location;lat;lon;timestamp;P1;durP1;ratioP1;P2;durP2;ratioP2
15022;SDS011;19850;49.576;10.880;2022-07-10T00:00:39;5.67;;;2.97;;
15022;SDS011;19850;49.576;10.880;2022-07-10T00:04:42;4.27;;;3.63;;
15022;SDS011;19850;49.576;10.880;2022-07-10T00:08:46;6.67;;;3.73;;
15022;SDS011;19850;49.576;10.880;2022-07-10T00:12:50;3.73;;;3.30;;
15022;SDS011;19850;49.576;10.880;2022-07-10T00:16:53;5.73;;;3.33;;
15022;SDS011;19850;49.576;10.880;2022-07-10T00:20:56;5.63;;;3.37;;
15022;SDS011;19850;49.576;10.880;2022-07-10T00:25:00;4.33;;;3.13;;
15022;SDS011;19850;49.576;10.880;2022-07-10T00:29:03;4.60;;;3.13;;
15022;SDS011;19850;49.576;10.880;2022-07-10T00:33:06;4.00;;;3.27;;
15022;SDS011;19850;49.576;10.880;2022-07-10T00:37:08;3.50;;;3.20;;
15022;SDS011;19850;49.576;10.880;2022-07-10T00:41:13;4.43;;;3.30;;
15022;SDS011;19850;49.576;10.880;2022-07-10T00:45:16;5.40;;;3.17;;
15022;SDS011;19850;49.576;10.880;2022-07-10T00:49:19;4.40;;;3.20;;
15022;SDS011;19850;49.576;10.880;2022-07-10T00:53:22;3.43;;;3.13;;
15022;SDS011;19850;49.576;10.880;2022-07-10T00:57:26;6.47;;;3.00;;
15022;SDS011;19850;49.576;10.880;2022-07-10T01:01:29;4.93;;;3.10;;
15022;SDS011;19850;49.576;10.880;2022-07-10T01:05:32;7.43;;;3.13;;
15022;SDS011;19850;49.576;10.880;2022-07-10T01:09:34;4.57;;;3.17;;
15022;SDS011;19850;49.576;10.880;2022-07-10T01:13:39;3.20;;;2.90;;
15022;SDS011;19850;49.576;10.880;2022-07-10T01:17:42;5.87;;;3.13;;
15022;SDS011;19850;49.576;10.880;2022-07-10T01:21:46;6.03;;;2.87;;
15022;SDS011;19850;49.576;10.880;2022-07-10T01:25:49;5.33;;;3.07;;
15022;SDS011;19850;49.576;10.880;2022-07-10T01:29:52;4.10;;;2.50;;
15022;SDS011;19850;49.576;10.880;2022-07-10T01:33:55;5.10;;;2.90;;
15022;SDS011;19850;49.576;10.880;2022-07-10T01:38:00;6.70;;;2.70;;
15022;SDS011;19850;49.576;10.880;2022-07-10T01:42:03;4.90;;;2.73;;
15022;SDS011;19850;49.576;10.880;2022-07-10T01:46:06;3.77;;;2.57;;
15022;SDS011;19850;49.576;10.880;2022-07-10T01:50:10;3.57;;;2.50;;
15022;SDS011;19850;49.576;10.880;2022-07-10T01:54:14;5.43;;;2.60;;
15022;SDS011;19850;49.576;10.880;2022-07-10T01:58:17;4.77;;;2.43;;
15022;SDS011;19850;49.576;10.880;2022-07-10T02:02:19;4.67;;;2.90;;
15022;SDS011;19850;49.576;10.880;2022-07-10T02:06:23;4.40;;;2.50;;
15022;SDS011;19850;49.576;10.880;2022-07-10T02:10:27;5.87;;;2.40;;
15022;SDS011;19850;49.576;10.880;2022-07-10T02:14:30;5.23;;;2.20;;
15022;SDS011;19850;49.576;10.880;2022-07-10T02:18:32;5.07;;;2.60;;
15022;SDS011;19850;49.576;10.880;2022-07-10T02:22:37;4.23;;;2.00;;
15022;SDS011;19850;49.576;10.880;2022-07-10T02:26:41;5.33;;;2.10;;
15022;SDS011;19850;49.576;10.880;2022-07-10T02:30:44;4.57;;;2.03;;
15022;SDS011;19850;49.576;10.880;2022-07-10T02:34:46;6.53;;;2.00;;
15022;SDS011;19850;49.576;10.880;2022-07-10T02:38:49;8.53;;;2.13;;
15022;SDS011;19850;49.576;10.880;2022-07-10T02:42:53;4.47;;;1.77;;
15022;SDS011;19850;49.576;10.880;2022-07-10T02:46:56;6.00;;;1.90;;
15022;SDS011;19850;49.576;10.880;2022-07-10T02:50:59;5.43;;;2.00;;
15022;SDS011;19850;49.576;10.880;2022-07-10T02:55:02;6.20;;;1.67;;
15022;SDS011;19850;49.576;10.880;2022-07-10T02:59:06;4.33;;;1.60;;
15022;SDS011;19850;49.576;10.880;2022-07-10T03:03:09;5.23;;;1.60;;
15022;SDS011;19850;49.576;10.880;2022-07-10T03:07:11;4.80;;;1.57;;
15022;SDS011;19850;49.576;10.880;2022-07-10T03:11:14;3.57;;;1.73;;
15022;SDS011;19850;49.576;10.880;2022-07-10T03:15:19;4.37;;;1.67;;
15022;SDS011;19850;49.576;10.880;2022-07-10T03:19:22;5.70;;;1.60;;
15022;SDS011;19850;49.576;10.880;2022-07-10T03:23:24;4.83;;;1.37;;
15022;SDS011;19850;49.576;10.880;2022-07-10T03:27:27;5.20;;;1.50;;
15022;SDS011;19850;49.576;10.880;2022-07-10T03:31:31;5.87;;;1.37;;
15022;SDS011;19850;49.576;10.880;2022-07-10T03:35:34;4.17;;;1.47;;
15022;SDS011;19850;49.576;10.880;2022-07-10T03:39:37;4.70;;;1.30;;
15022;SDS011;19850;49.576;10.880;2022-07-10T03:43:40;5.37;;;1.50;;
15022;SDS011;19850;49.576;10.880;2022-07-10T03:47:44;6.33;;;1.40;;
15022;SDS011;19850;49.576;10.880;2022-07-10T03:51:47;7.63;;;1.50;;
15022;SDS011;19850;49.576;10.880;2022-07-10T03:55:50;3.40;;;1.40;;
15022;SDS011;19850;49.576;10.880;2022-07-10T03:59:53;4.10;;;1.40;;
15022;SDS011;19850;49.576;10.880;2022-07-10T04:03:56;4.57;;;1.20;;
15022;SDS011;19850;49.576;10.880;2022-07-10T04:07:59;6.03;;;1.67;;
15022;SDS011;19850;49.576;10.880;2022-07-10T04:12:02;4.60;;;1.40;;
15022;SDS011;19850;49.576;10.880;2022-07-10T04:16:06;5.73;;;1.47;;
15022;SDS011;19850;49.576;10.880;2022-07-10T04:20:13;7.13;;;1.50;;
15022;SDS011;19850;49.576;10.880;2022-07-10T04:24:16;4.87;;;1.33;;
15022;SDS011;19850;49.576;10.880;2022-07-10T04:28:19;5.13;;;1.40;;
15022;SDS011;19850;49.576;10.880;2022-07-10T04:32:22;5.10;;;1.30;;
15022;SDS011;19850;49.576;10.880;2022-07-10T04:36:26;5.03;;;1.53;;
15022;SDS011;19850;49.576;10.880;2022-07-10T04:40:28;5.80;;;1.57;;
15022;SDS011;19850;49.576;10.880;2022-07-10T04:44:31;4.53;;;1.40;;
15022;SDS011;19850;49.576;10.880;2022-07-10T04:48:34;5.47;;;1.50;;
15022;SDS011;19850;49.576;10.880;2022-07-10T04:52:39;4.27;;;1.30;;
15022;SDS011;19850;49.576;10.880;2022-07-10T04:56:42;6.13;;;1.37;;
15022;SDS011;19850;49.576;10.880;2022-07-10T05:00:45;5.23;;;1.30;;
15022;SDS011;19850;49.576;10.880;2022-07-10T05:04:48;5.00;;;1.30;;
15022;SDS011;19850;49.576;10.880;2022-07-10T05:08:52;5.20;;;1.50;;
15022;SDS011;19850;49.576;10.880;2022-07-10T05:12:56;4.53;;;1.20;;
15022;SDS011;19850;49.576;10.880;2022-07-10T05:16:59;4.37;;;1.20;;
15022;SDS011;19850;49.576;10.880;2022-07-10T05:21:01;4.53;;;1.40;;
15022;SDS011;19850;49.576;10.880;2022-07-10T05:25:06;5.00;;;1.20;;
15022;SDS011;19850;49.576;10.880;2022-07-10T05:29:09;2.63;;;1.10;;
15022;SDS011;19850;49.576;10.880;2022-07-10T05:33:12;3.43;;;1.00;;
15022;SDS011;19850;49.576;10.880;2022-07-10T05:37:15;3.47;;;1.00;;
15022;SDS011;19850;49.576;10.880;2022-07-10T05:41:19;4.67;;;1.40;;
15022;SDS011;19850;49.576;10.880;2022-07-10T05:45:22;8.73;;;1.60;;
15022;SDS011;19850;49.576;10.880;2022-07-10T05:49:25;3.77;;;1.20;;
15022;SDS011;19850;49.576;10.880;2022-07-10T05:53:27;3.40;;;1.03;;
15022;SDS011;19850;49.576;10.880;2022-07-10T05:57:32;5.47;;;1.43;;
15022;SDS011;19850;49.576;10.880;2022-07-10T06:01:34;4.33;;;1.47;;
15022;SDS011;19850;49.576;10.880;2022-07-10T06:05:37;5.47;;;1.27;;
15022;SDS011;19850;49.576;10.880;2022-07-10T06:09:40;4.23;;;1.37;;
15022;SDS011;19850;49.576;10.880;2022-07-10T06:13:44;4.10;;;1.13;;
15022;SDS011;19850;49.576;10.880;2022-07-10T06:17:47;3.87;;;1.27;;
15022;SDS011;19850;49.576;10.880;2022-07-10T06:21:50;5.20;;;1.50;;
15022;SDS011;19850;49.576;10.880;2022-07-10T06:26:13;3.37;;;1.10;;
15022;SDS011;19850;49.576;10.880;2022-07-10T06:30:17;3.83;;;1.20;;
15022;SDS011;19850;49.576;10.880;2022-07-10T06:34:20;4.63;;;1.00;;
15022;SDS011;19850;49.576;10.880;2022-07-10T06:38:23;4.43;;;1.23;;
15022;SDS011;19850;49.576;10.880;2022-07-10T06:42:25;5.30;;;1.03;;
15022;SDS011;19850;49.576;10.880;2022-07-10T06:46:30;3.37;;;0.90;;
15022;SDS011;19850;49.576;10.880;2022-07-10T06:50:32;3.93;;;1.17;;
15022;SDS011;19850;49.576;10.880;2022-07-10T06:54:35;2.77;;;0.87;;
15022;SDS011;19850;49.576;10.880;2022-07-10T06:58:38;4.03;;;1.00;;
15022;SDS011;19850;49.576;10.880;2022-07-10T07:02:43;2.67;;;1.00;;
15022;SDS011;19850;49.576;10.880;2022-07-10T07:06:46;2.20;;;0.80;;
15022;SDS011;19850;49.576;10.880;2022-07-10T07:10:49;3.70;;;1.10;;
15022;SDS011;19850;49.576;10.880;2022-07-10T07:14:52;3.27;;;0.97;;
15022;SDS011;19850;49.576;10.880;2022-07-10T07:18:56;2.23;;;0.90;;
15022;SDS011;19850;49.576;10.880;2022-07-10T07:22:59;5.20;;;0.90;;
15022;SDS011;19850;49.576;10.880;2022-07-10T07:27:13;4.63;;;0.90;;
15022;SDS011;19850;49.576;10.880;2022-07-10T07:31:16;5.37;;;1.00;;
15022;SDS011;19850;49.576;10.880;2022-07-10T07:35:21;4.57;;;0.90;;
15022;SDS011;19850;49.576;10.880;2022-07-10T07:39:24;4.93;;;0.90;;
15022;SDS011;19850;49.576;10.880;2022-07-10T07:43:27;2.87;;;0.90;;
15022;SDS011;19850;49.576;10.880;2022-07-10T07:47:30;2.63;;;0.67;;
15022;SDS011;19850;49.576;10.880;2022-07-10T07:51:35;6.33;;;0.97;;
15022;SDS011;19850;49.576;10.880;2022-07-10T07:55:38;3.40;;;0.93;;
15022;SDS011;19850;49.576;10.880;2022-07-10T07:59:41;3.30;;;0.80;;
15022;SDS011;19850;49.576;10.880;2022-07-10T08:03:43;2.53;;;0.60;;
15022;SDS011;19850;49.576;10.880;2022-07-10T08:08:07;2.33;;;0.70;;
15022;SDS011;19850;49.576;10.880;2022-07-10T08:12:11;2.30;;;0.60;;
15022;SDS011;19850;49.576;10.880;2022-07-10T08:16:14;1.83;;;0.70;;
15022;SDS011;19850;49.576;10.880;2022-07-10T08:20:17;3.03;;;1.00;;
15022;SDS011;19850;49.576;10.880;2022-07-10T08:24:21;17.87;;;1.03;;
15022;SDS011;19850;49.576;10.880;2022-07-10T08:28:24;4.87;;;0.80;;
15022;SDS011;19850;49.576;10.880;2022-07-10T08:32:27;1.97;;;0.83;;
15022;SDS011;19850;49.576;10.880;2022-07-10T08:36:30;1.40;;;0.60;;
15022;SDS011;19850;49.576;10.880;2022-07-10T08:40:46;4.30;;;0.80;;
15022;SDS011;19850;49.576;10.880;2022-07-10T08:44:48;2.20;;;0.77;;
15022;SDS011;19850;49.576;10.880;2022-07-10T08:48:52;2.50;;;0.60;;
15022;SDS011;19850;49.576;10.880;2022-07-10T08:52:58;3.33;;;1.00;;
15022;SDS011;19850;49.576;10.880;2022-07-10T08:57:04;4.30;;;1.07;;
15022;SDS011;19850;49.576;10.880;2022-07-10T09:01:07;2.73;;;0.90;;
15022;SDS011;19850;49.576;10.880;2022-07-10T09:05:11;2.77;;;0.87;;
15022;SDS011;19850;49.576;10.880;2022-07-10T09:09:14;2.50;;;0.70;;
15022;SDS011;19850;49.576;10.880;2022-07-10T09:13:18;3.37;;;0.90;;
15022;SDS011;19850;49.576;10.880;2022-07-10T09:17:21;2.07;;;0.90;;
15022;SDS011;19850;49.576;10.880;2022-07-10T09:21:24;2.63;;;0.80;;
15022;SDS011;19850;49.576;10.880;2022-07-10T09:25:31;3.27;;;0.90;;
15022;SDS011;19850;49.576;10.880;2022-07-10T09:29:45;1.90;;;0.70;;
15022;SDS011;19850;49.576;10.880;2022-07-10T09:33:49;4.03;;;0.73;;
15022;SDS011;19850;49.576;10.880;2022-07-10T09:37:52;2.40;;;0.70;;
15022;SDS011;19850;49.576;10.880;2022-07-10T09:41:55;2.60;;;0.80;;
15022;SDS011;19850;49.576;10.880;2022-07-10T09:45:59;3.80;;;1.07;;
15022;SDS011;19850;49.576;10.880;2022-07-10T09:50:02;2.73;;;0.97;;
15022;SDS011;19850;49.576;10.880;2022-07-10T09:54:05;3.00;;;0.80;;
15022;SDS011;19850;49.576;10.880;2022-07-10T09:58:09;3.00;;;1.00;;
15022;SDS011;19850;49.576;10.880;2022-07-10T10:02:13;3.20;;;1.20;;
15022;SDS011;19850;49.576;10.880;2022-07-10T10:06:19;3.27;;;1.10;;
15022;SDS011;19850;49.576;10.880;2022-07-10T10:10:22;4.40;;;0.83;;
15022;SDS011;19850;49.576;10.880;2022-07-10T10:14:26;3.40;;;0.90;;
15022;SDS011;19850;49.576;10.880;2022-07-10T10:18:31;3.13;;;0.93;;
15022;SDS011;19850;49.576;10.880;2022-07-10T10:22:34;2.23;;;1.00;;
15022;SDS011;19850;49.576;10.880;2022-07-10T10:26:38;3.40;;;1.10;;
15022;SDS011;19850;49.576;10.880;2022-07-10T10:30:41;3.90;;;1.30;;
15022;SDS011;19850;49.576;10.880;2022-07-10T10:34:48;2.73;;;0.97;;
15022;SDS011;19850;49.576;10.880;2022-07-10T10:39:00;6.40;;;1.07;;
15022;SDS011;19850;49.576;10.880;2022-07-10T10:43:18;11.93;;;1.70;;
15022;SDS011;19850;49.576;10.880;2022-07-10T10:47:21;6.53;;;1.83;;
15022;SDS011;19850;49.576;10.880;2022-07-10T10:51:33;3.53;;;1.30;;
15022;SDS011;19850;49.576;10.880;2022-07-10T11:00:34;4.00;;;1.17;;
15022;SDS011;19850;49.576;10.880;2022-07-10T11:04:41;4.03;;;1.10;;
15022;SDS011;19850;49.576;10.880;2022-07-10T11:08:48;3.93;;;1.30;;
15022;SDS011;19850;49.576;10.880;2022-07-10T11:12:58;2.73;;;0.97;;
15022;SDS011;19850;49.576;10.880;2022-07-10T11:17:01;2.47;;;0.77;;
15022;SDS011;19850;49.576;10.880;2022-07-10T11:21:05;2.77;;;1.00;;
15022;SDS011;19850;49.576;10.880;2022-07-10T11:25:17;3.47;;;1.17;;
15022;SDS011;19850;49.576;10.880;2022-07-10T11:29:29;2.83;;;1.00;;
15022;SDS011;19850;49.576;10.880;2022-07-10T11:33:38;4.00;;;0.83;;
15022;SDS011;19850;49.576;10.880;2022-07-10T11:37:48;3.97;;;0.70;;
15022;SDS011;19850;49.576;10.880;2022-07-10T11:41:53;2.87;;;0.97;;
15022;SDS011;19850;49.576;10.880;2022-07-10T11:45:56;1.80;;;0.70;;
15022;SDS011;19850;49.576;10.880;2022-07-10T11:50:02;2.80;;;0.90;;
15022;SDS011;19850;49.576;10.880;2022-07-10T11:54:06;5.87;;;1.70;;
15022;SDS011;19850;49.576;10.880;2022-07-10T11:58:15;5.43;;;1.27;;
15022;SDS011;19850;49.576;10.880;2022-07-10T12:02:21;9.83;;;1.20;;
15022;SDS011;19850;49.576;10.880;2022-07-10T12:06:24;2.80;;;1.00;;
15022;SDS011;19850;49.576;10.880;2022-07-10T12:10:28;4.57;;;1.23;;
15022;SDS011;19850;49.576;10.880;2022-07-10T12:14:33;6.13;;;1.17;;
15022;SDS011;19850;49.576;10.880;2022-07-10T12:18:37;3.93;;;1.00;;
15022;SDS011;19850;49.576;10.880;2022-07-10T12:22:42;3.63;;;0.73;;
15022;SDS011;19850;49.576;10.880;2022-07-10T12:26:45;5.10;;;0.70;;
15022;SDS011;19850;49.576;10.880;2022-07-10T12:30:50;2.43;;;0.90;;
15022;SDS011;19850;49.576;10.880;2022-07-10T12:34:58;3.43;;;0.80;;
15022;SDS011;19850;49.576;10.880;2022-07-10T12:39:01;2.00;;;0.80;;
15022;SDS011;19850;49.576;10.880;2022-07-10T12:43:04;3.57;;;1.00;;
15022;SDS011;19850;49.576;10.880;2022-07-10T12:47:09;1.63;;;0.70;;
15022;SDS011;19850;49.576;10.880;2022-07-10T12:51:21;2.10;;;0.83;;
15022;SDS011;19850;49.576;10.880;2022-07-10T12:55:34;2.80;;;0.90;;
15022;SDS011;19850;49.576;10.880;2022-07-10T12:59:38;2.67;;;0.73;;
15022;SDS011;19850;49.576;10.880;2022-07-10T13:03:45;1.97;;;0.67;;
15022;SDS011;19850;49.576;10.880;2022-07-10T13:07:48;1.70;;;0.70;;
15022;SDS011;19850;49.576;10.880;2022-07-10T13:11:51;4.93;;;0.80;;
15022;SDS011;19850;49.576;10.880;2022-07-10T13:15:54;2.60;;;0.87;;
15022;SDS011;19850;49.576;10.880;2022-07-10T13:19:59;1.83;;;0.70;;
15022;SDS011;19850;49.576;10.880;2022-07-10T13:24:03;2.83;;;0.83;;
15022;SDS011;19850;49.576;10.880;2022-07-10T13:28:06;2.07;;;0.90;;
15022;SDS011;19850;49.576;10.880;2022-07-10T13:32:09;2.83;;;1.03;;
15022;SDS011;19850;49.576;10.880;2022-07-10T13:36:13;2.33;;;0.87;;
15022;SDS011;19850;49.576;10.880;2022-07-10T13:40:16;1.97;;;0.70;;
15022;SDS011;19850;49.576;10.880;2022-07-10T13:44:19;3.30;;;0.80;;
15022;SDS011;19850;49.576;10.880;2022-07-10T13:48:22;4.47;;;1.10;;
15022;SDS011;19850;49.576;10.880;2022-07-10T13:52:27;4.40;;;0.83;;
15022;SDS011;19850;49.576;10.880;2022-07-10T13:56:30;3.07;;;0.80;;
15022;SDS011;19850;49.576;10.880;2022-07-10T14:00:33;3.37;;;1.00;;
15022;SDS011;19850;49.576;10.880;2022-07-10T14:04:36;1.70;;;0.73;;
15022;SDS011;19850;49.576;10.880;2022-07-10T14:08:41;6.57;;;0.83;;
15022;SDS011;19850;49.576;10.880;2022-07-10T14:12:44;1.63;;;0.77;;
15022;SDS011;19850;49.576;10.880;2022-07-10T14:16:48;2.07;;;0.70;;
15022;SDS011;19850;49.576;10.880;2022-07-10T14:20:52;2.63;;;1.03;;
15022;SDS011;19850;49.576;10.880;2022-07-10T14:25:06;4.33;;;0.90;;
15022;SDS011;19850;49.576;10.880;2022-07-10T14:29:10;3.87;;;0.93;;
15022;SDS011;19850;49.576;10.880;2022-07-10T14:33:13;3.60;;;0.90;;
15022;SDS011;19850;49.576;10.880;2022-07-10T14:37:16;6.10;;;1.17;;
15022;SDS011;19850;49.576;10.880;2022-07-10T14:41:21;4.43;;;1.00;;
15022;SDS011;19850;49.576;10.880;2022-07-10T14:45:24;6.53;;;1.10;;
15022;SDS011;19850;49.576;10.880;2022-07-10T14:49:47;4.67;;;1.00;;
15022;SDS011;19850;49.576;10.880;2022-07-10T14:53:49;4.40;;;0.97;;
15022;SDS011;19850;49.576;10.880;2022-07-10T14:57:54;4.50;;;0.77;;
15022;SDS011;19850;49.576;10.880;2022-07-10T15:01:57;2.90;;;0.93;;
15022;SDS011;19850;49.576;10.880;2022-07-10T15:06:00;3.70;;;0.83;;
15022;SDS011;19850;49.576;10.880;2022-07-10T15:10:03;2.97;;;0.93;;
15022;SDS011;19850;49.576;10.880;2022-07-10T15:14:07;2.50;;;0.83;;
15022;SDS011;19850;49.576;10.880;2022-07-10T15:18:10;2.97;;;0.90;;
15022;SDS011;19850;49.576;10.880;2022-07-10T15:22:13;2.43;;;1.00;;
15022;SDS011;19850;49.576;10.880;2022-07-10T15:26:16;3.20;;;0.87;;
15022;SDS011;19850;49.576;10.880;2022-07-10T15:30:21;1.63;;;0.80;;
15022;SDS011;19850;49.576;10.880;2022-07-10T15:34:24;2.87;;;0.80;;
15022;SDS011;19850;49.576;10.880;2022-07-10T15:38:27;2.47;;;1.00;;
15022;SDS011;19850;49.576;10.880;2022-07-10T15:42:32;3.87;;;0.90;;
15022;SDS011;19850;49.576;10.880;2022-07-10T15:46:36;4.17;;;0.80;;
15022;SDS011;19850;49.576;10.880;2022-07-10T15:50:39;3.80;;;0.80;;
15022;SDS011;19850;49.576;10.880;2022-07-10T15:54:42;1.93;;;0.80;;
15022;SDS011;19850;49.576;10.880;2022-07-10T15:58:45;3.43;;;1.50;;
15022;SDS011;19850;49.576;10.880;2022-07-10T16:02:49;23.20;;;5.13;;
15022;SDS011;19850;49.576;10.880;2022-07-10T16:06:58;14.50;;;4.23;;
15022;SDS011;19850;49.576;10.880;2022-07-10T16:11:00;26.90;;;6.73;;
15022;SDS011;19850;49.576;10.880;2022-07-10T16:15:04;6.40;;;2.13;;
15022;SDS011;19850;49.576;10.880;2022-07-10T16:19:14;3.57;;;1.50;;
15022;SDS011;19850;49.576;10.880;2022-07-10T16:23:17;2.80;;;1.00;;
15022;SDS011;19850;49.576;10.880;2022-07-10T16:27:20;3.60;;;1.37;;
15022;SDS011;19850;49.576;10.880;2022-07-10T16:31:22;2.17;;;0.80;;
15022;SDS011;19850;49.576;10.880;2022-07-10T16:35:27;3.55;;;1.08;;
15022;SDS011;19850;49.576;10.880;2022-07-10T16:39:30;2.00;;;0.70;;
15022;SDS011;19850;49.576;10.880;2022-07-10T16:43:33;3.37;;;0.80;;
15022;SDS011;19850;49.576;10.880;2022-07-10T16:47:36;3.33;;;1.00;;
15022;SDS011;19850;49.576;10.880;2022-07-10T16:51:40;4.27;;;1.27;;
15022;SDS011;19850;49.576;10.880;2022-07-10T16:55:44;3.47;;;0.77;;
15022;SDS011;19850;49.576;10.880;2022-07-10T16:59:47;4.10;;;0.80;;
15022;SDS011;19850;49.576;10.880;2022-07-10T17:03:50;2.87;;;0.90;;
15022;SDS011;19850;49.576;10.880;2022-07-10T17:07:55;3.80;;;0.90;;
15022;SDS011;19850;49.576;10.880;2022-07-10T17:11:58;4.73;;;0.87;;
15022;SDS011;19850;49.576;10.880;2022-07-10T17:16:01;2.53;;;1.00;;
15022;SDS011;19850;49.576;10.880;2022-07-10T17:20:04;2.57;;;1.00;;
15022;SDS011;19850;49.576;10.880;2022-07-10T17:24:09;4.23;;;1.00;;
15022;SDS011;19850;49.576;10.880;2022-07-10T17:28:12;4.17;;;0.83;;
15022;SDS011;19850;49.576;10.880;2022-07-10T17:32:14;3.00;;;1.03;;
15022;SDS011;19850;49.576;10.880;2022-07-10T17:36:17;5.27;;;1.00;;
15022;SDS011;19850;49.576;10.880;2022-07-10T17:40:22;3.03;;;1.20;;
15022;SDS011;19850;49.576;10.880;2022-07-10T17:44:25;4.47;;;1.10;;
15022;SDS011;19850;49.576;10.880;2022-07-10T17:48:28;2.53;;;1.03;;
15022;SDS011;19850;49.576;10.880;2022-07-10T17:52:31;2.93;;;1.20;;
15022;SDS011;19850;49.576;10.880;2022-07-10T17:56:35;4.97;;;1.67;;
15022;SDS011;19850;49.576;10.880;2022-07-10T18:00:37;4.10;;;1.17;;
15022;SDS011;19850;49.576;10.880;2022-07-10T18:04:40;2.83;;;0.80;;
15022;SDS011;19850;49.576;10.880;2022-07-10T18:08:43;3.53;;;1.03;;
15022;SDS011;19850;49.576;10.880;2022-07-10T18:12:50;3.37;;;1.47;;
15022;SDS011;19850;49.576;10.880;2022-07-10T18:16:53;5.57;;;1.20;;
15022;SDS011;19850;49.576;10.880;2022-07-10T18:20:56;8.97;;;1.40;;
15022;SDS011;19850;49.576;10.880;2022-07-10T18:24:59;12.83;;;1.73;;
15022;SDS011;19850;49.576;10.880;2022-07-10T18:29:03;12.53;;;1.73;;
15022;SDS011;19850;49.576;10.880;2022-07-10T18:33:06;6.17;;;1.30;;
15022;SDS011;19850;49.576;10.880;2022-07-10T18:37:43;3.70;;;1.27;;
15022;SDS011;19850;49.576;10.880;2022-07-10T18:41:46;3.83;;;1.23;;
15022;SDS011;19850;49.576;10.880;2022-07-10T18:45:50;14.48;;;1.75;;
15022;SDS011;19850;49.576;10.880;2022-07-10T18:49:53;9.67;;;1.20;;
15022;SDS011;19850;49.576;10.880;2022-07-10T18:53:56;10.80;;;1.63;;
15022;SDS011;19850;49.576;10.880;2022-07-10T18:57:59;10.80;;;1.60;;
15022;SDS011;19850;49.576;10.880;2022-07-10T19:02:04;7.93;;;1.55;;
15022;SDS011;19850;49.576;10.880;2022-07-10T19:06:07;15.93;;;1.80;;
15022;SDS011;19850;49.576;10.880;2022-07-10T19:10:09;13.83;;;2.00;;
15022;SDS011;19850;49.576;10.880;2022-07-10T19:14:12;16.17;;;1.90;;
15022;SDS011;19850;49.576;10.880;2022-07-10T19:18:17;3.90;;;1.40;;
15022;SDS011;19850;49.576;10.880;2022-07-10T19:22:20;6.80;;;1.50;;
15022;SDS011;19850;49.576;10.880;2022-07-10T19:26:23;8.20;;;1.53;;
15022;SDS011;19850;49.576;10.880;2022-07-10T19:30:26;19.03;;;2.20;;
15022;SDS011;19850;49.576;10.880;2022-07-10T19:34:30;11.83;;;1.60;;
15022;SDS011;19850;49.576;10.880;2022-07-10T19:38:33;11.33;;;1.50;;
15022;SDS011;19850;49.576;10.880;2022-07-10T19:42:36;5.80;;;1.27;;
15022;SDS011;19850;49.576;10.880;2022-07-10T19:46:39;4.97;;;1.30;;
15022;SDS011;19850;49.576;10.880;2022-07-10T19:50:44;5.68;;;1.42;;
15022;SDS011;19850;49.576;10.880;2022-07-10T19:54:46;5.07;;;1.10;;
15022;SDS011;19850;49.576;10.880;2022-07-10T19:58:49;5.87;;;1.30;;
15022;SDS011;19850;49.576;10.880;2022-07-10T20:02:52;7.63;;;1.27;;
15022;SDS011;19850;49.576;10.880;2022-07-10T20:06:56;7.40;;;1.63;;
15022;SDS011;19850;49.576;10.880;2022-07-10T20:10:59;5.73;;;1.30;;
15022;SDS011;19850;49.576;10.880;2022-07-10T20:15:02;7.37;;;1.13;;
15022;SDS011;19850;49.576;10.880;2022-07-10T20:19:05;5.37;;;1.30;;
15022;SDS011;19850;49.576;10.880;2022-07-10T20:23:10;3.17;;;1.00;;
15022;SDS011;19850;49.576;10.880;2022-07-10T20:27:13;8.80;;;1.17;;
15022;SDS011;19850;49.576;10.880;2022-07-10T20:31:17;2.90;;;1.03;;
15022;SDS011;19850;49.576;10.880;2022-07-10T20:35:20;7.07;;;1.20;;
15022;SDS011;19850;49.576;10.880;2022-07-10T20:39:24;6.10;;;1.43;;
15022;SDS011;19850;49.576;10.880;2022-07-10T20:43:27;5.73;;;1.43;;
15022;SDS011;19850;49.576;10.880;2022-07-10T20:47:30;5.77;;;1.30;;
15022;SDS011;19850;49.576;10.880;2022-07-10T20:51:33;4.37;;;1.20;;
15022;SDS011;19850;49.576;10.880;2022-07-10T20:55:37;4.73;;;1.10;;
15022;SDS011;19850;49.576;10.880;2022-07-10T20:59:40;5.73;;;1.20;;
15022;SDS011;19850;49.576;10.880;2022-07-10T21:03:43;5.60;;;1.20;;
15022;SDS011;19850;49.576;10.880;2022-07-10T21:07:46;4.40;;;1.10;;
15022;SDS011;19850;49.576;10.880;2022-07-10T21:11:50;4.37;;;1.20;;
15022;SDS011;19850;49.576;10.880;2022-07-10T21:15:53;3.37;;;1.03;;
15022;SDS011;19850;49.576;10.880;2022-07-10T21:19:57;5.30;;;1.10;;
15022;SDS011;19850;49.576;10.880;2022-07-10T21:24:00;4.10;;;1.20;;
15022;SDS011;19850;49.576;10.880;2022-07-10T21:28:05;4.63;;;1.10;;
15022;SDS011;19850;49.576;10.880;2022-07-10T21:32:07;5.93;;;1.17;;
15022;SDS011;19850;49.576;10.880;2022-07-10T21:36:12;4.30;;;1.30;;
15022;SDS011;19850;49.576;10.880;2022-07-10T21:40:15;3.27;;;1.17;;
15022;SDS011;19850;49.576;10.880;2022-07-10T21:44:19;6.67;;;1.20;;
15022;SDS011;19850;49.576;10.880;2022-07-10T21:48:22;7.57;;;1.50;;
15022;SDS011;19850;49.576;10.880;2022-07-10T21:52:24;3.93;;;1.10;;
15022;SDS011;19850;49.576;10.880;2022-07-10T21:56:27;5.47;;;1.10;;
15022;SDS011;19850;49.576;10.880;2022-07-10T22:00:32;4.70;;;1.50;;
15022;SDS011;19850;49.576;10.880;2022-07-10T22:04:35;5.73;;;1.40;;
15022;SDS011;19850;49.576;10.880;2022-07-10T22:08:38;5.10;;;1.10;;
15022;SDS011;19850;49.576;10.880;2022-07-10T22:12:40;4.70;;;1.10;;
15022;SDS011;19850;49.576;10.880;2022-07-10T22:16:44;5.70;;;1.20;;
15022;SDS011;19850;49.576;10.880;2022-07-10T22:20:49;3.97;;;1.40;;
15022;SDS011;19850;49.576;10.880;2022-07-10T22:24:52;3.97;;;1.00;;
15022;SDS011;19850;49.576;10.880;2022-07-10T22:28:55;4.10;;;1.40;;
15022;SDS011;19850;49.576;10.880;2022-07-10T22:33:00;8.73;;;1.30;;
15022;SDS011;19850;49.576;10.880;2022-07-10T22:37:03;4.33;;;1.40;;
15022;SDS011;19850;49.576;10.880;2022-07-10T22:41:06;3.53;;;1.10;;
15022;SDS011;19850;49.576;10.880;2022-07-10T22:45:09;4.20;;;1.00;;
15022;SDS011;19850;49.576;10.880;2022-07-10T22:49:14;9.33;;;1.10;;
15022;SDS011;19850;49.576;10.880;2022-07-10T22:53:17;2.87;;;1.03;;
15022;SDS011;19850;49.576;10.880;2022-07-10T22:57:20;4.03;;;1.10;;
15022;SDS011;19850;49.576;10.880;2022-07-10T23:01:23;3.67;;;1.10;;
15022;SDS011;19850;49.576;10.880;2022-07-10T23:05:28;4.90;;;1.47;;
15022;SDS011;19850;49.576;10.880;2022-07-10T23:09:31;7.97;;;1.80;;
15022;SDS011;19850;49.576;10.880;2022-07-10T23:13:33;3.87;;;1.20;;
15022;SDS011;19850;49.576;10.880;2022-07-10T23:17:36;6.63;;;1.40;;
15022;SDS011;19850;49.576;10.880;2022-07-10T23:21:40;3.23;;;1.30;;
15022;SDS011;19850;49.576;10.880;2022-07-10T23:25:43;3.27;;;0.97;;
15022;SDS011;19850;49.576;10.880;2022-07-10T23:29:46;3.63;;;1.27;;
15022;SDS011;19850;49.576;10.880;2022-07-10T23:33:49;2.83;;;1.07;;
15022;SDS011;19850;49.576;10.880;2022-07-10T23:37:53;4.77;;;1.43;;
15022;SDS011;19850;49.576;10.880;2022-07-10T23:41:56;3.50;;;1.10;;
15022;SDS011;19850;49.576;10.880;2022-07-10T23:45:59;3.10;;;1.10;;
15022;SDS011;19850;49.576;10.880;2022-07-10T23:50:02;4.43;;;0.90;;
15022;SDS011;19850;49.576;10.880;2022-07-10T23:54:14;6.63;;;1.00;;
15022;SDS011;19850;49.576;10.880;2022-07-10T23:58:16;4.27;;;1.10;;
